Time;durP1;ratioP1;P1;durP2;ratioP2;P2;SDS_P1;SDS_P2;PMS_P1;PMS_P2;Temp;Humidity;BMP_temperature;BMP_pressure;BME280_temperature;BME280_humidity;BME280_pressure;Samples;Min_cycle;Max_cycle;Signal;HPM_P1;HPM_P2
2021/09/29 00:01:29;;;;;;;0.00;0.00;;;;;;;;;;5063886;28;20205;-64
2021/09/29 00:03:57;;;;;;;0.10;0.10;;;;;;;;;;5063601;28;20226;-64
2021/09/29 00:06:23;;;;;;;0.10;0.10;;;;;;;;;;5063777;28;20273;-64
2021/09/29 00:08:49;;;;;;;0.10;0.10;;;;;;;;;;5063814;28;20370;-62
2021/09/29 00:11:15;;;;;;;0.00;0.00;;;;;;;;;;5050717;28;20260;-62
2021/09/29 00:13:41;;;;;;;0.10;0.10;;;;;;;;;;5057691;28;20199;-63
2021/09/29 00:16:08;;;;;;;0.10;0.10;;;;;;;;;;5043820;28;20258;-63
2021/09/29 00:18:34;;;;;;;0.10;0.10;;;;;;;;;;5043520;28;20201;-62
2021/09/29 00:21:01;;;;;;;0.03;0.03;;;;;;;;;;5052378;28;20214;-63
2021/09/29 00:23:28;;;;;;;0.10;0.10;;;;;;;;;;5047678;28;20347;-63
2021/09/29 00:25:54;;;;;;;0.10;0.10;;;;;;;;;;5043636;28;20482;-63
2021/09/29 00:28:20;;;;;;;0.10;0.10;;;;;;;;;;5043481;28;20247;-63
2021/09/29 00:31:01;;;;;;;0.10;0.10;;;;;;;;;;5043337;28;20256;-63
2021/09/29 00:33:28;;;;;;;0.10;0.10;;;;;;;;;;5043423;28;20206;-63
2021/09/29 00:35:54;;;;;;;0.10;0.10;;;;;;;;;;5043224;28;20239;-63
2021/09/29 00:38:22;;;;;;;0.10;0.10;;;;;;;;;;5043563;28;20204;-63
2021/09/29 00:40:48;;;;;;;0.10;0.10;;;;;;;;;;5057276;28;20254;-63
2021/09/29 00:43:14;;;;;;;0.00;0.00;;;;;;;;;;5043026;28;20222;-63
2021/09/29 00:45:41;;;;;;;0.10;0.10;;;;;;;;;;5043167;28;20429;-63
2021/09/29 00:48:07;;;;;;;0.10;0.10;;;;;;;;;;5043295;28;20240;-63
2021/09/29 00:50:35;;;;;;;0.10;0.10;;;;;;;;;;5042849;28;20214;-63
2021/09/29 00:53:01;;;;;;;0.10;0.10;;;;;;;;;;5043145;28;20199;-63
2021/09/29 00:55:29;;;;;;;0.10;0.10;;;;;;;;;;5042456;28;20428;-63
2021/09/29 00:57:55;;;;;;;0.10;0.10;;;;;;;;;;5043323;28;20222;-63
2021/09/29 01:00:21;;;;;;;0.10;0.10;;;;;;;;;;5052827;28;20227;-64
2021/09/29 01:02:48;;;;;;;0.10;0.10;;;;;;;;;;5062855;28;20237;-64
2021/09/29 01:05:14;;;;;;;0.10;0.10;;;;;;;;;;5062927;28;20417;-64
2021/09/29 01:07:46;;;;;;;0.10;0.10;;;;;;;;;;5062608;28;20208;-64
2021/09/29 01:10:16;;;;;;;0.10;0.10;;;;;;;;;;5062682;28;20201;-64
2021/09/29 01:12:47;;;;;;;0.10;0.10;;;;;;;;;;5049191;28;20199;-64
2021/09/29 01:15:16;;;;;;;0.10;0.10;;;;;;;;;;5042930;28;20305;-64
2021/09/29 01:17:45;;;;;;;0.10;0.10;;;;;;;;;;5052916;28;20454;-63
2021/09/29 01:20:13;;;;;;;0.10;0.10;;;;;;;;;;5046114;28;20284;-63
2021/09/29 01:22:49;;;;;;;0.10;0.10;;;;;;;;;;5042811;28;20506;-64
2021/09/29 01:25:19;;;;;;;0.10;0.10;;;;;;;;;;5042899;28;20520;-64
2021/09/29 01:27:47;;;;;;;0.00;0.00;;;;;;;;;;5057739;28;20209;-64
2021/09/29 01:30:13;;;;;;;0.10;0.10;;;;;;;;;;5046297;28;20248;-64
2021/09/29 01:32:40;;;;;;;0.00;0.00;;;;;;;;;;5051543;28;20202;-63
2021/09/29 01:35:07;;;;;;;0.10;0.10;;;;;;;;;;5062728;28;20313;-64
2021/09/29 01:37:33;;;;;;;0.10;0.10;;;;;;;;;;5062320;28;20252;-64
2021/09/29 01:40:00;;;;;;;0.10;0.10;;;;;;;;;;5062569;28;20214;-64
2021/09/29 01:42:26;;;;;;;0.10;0.10;;;;;;;;;;5062660;28;20206;-64
2021/09/29 01:44:54;;;;;;;0.10;0.10;;;;;;;;;;5048327;28;20206;-64
2021/09/29 01:47:20;;;;;;;0.10;0.10;;;;;;;;;;5052166;28;20210;-64
2021/09/29 01:49:48;;;;;;;0.00;0.00;;;;;;;;;;5058919;28;20203;-64
2021/09/29 01:52:17;;;;;;;0.10;0.10;;;;;;;;;;5062337;28;20268;-64
2021/09/29 01:54:45;;;;;;;0.10;0.10;;;;;;;;;;5062203;28;20227;-64
2021/09/29 01:57:11;;;;;;;0.10;0.10;;;;;;;;;;5062503;28;20234;-63
2021/09/29 01:59:38;;;;;;;0.10;0.10;;;;;;;;;;5048893;28;20563;-63
2021/09/29 02:02:06;;;;;;;0.10;0.10;;;;;;;;;;5047796;28;20247;-63
2021/09/29 02:04:32;;;;;;;0.10;0.10;;;;;;;;;;5062296;28;20241;-63
2021/09/29 02:06:59;;;;;;;0.00;0.00;;;;;;;;;;5065538;28;20228;-63
2021/09/29 02:09:25;;;;;;;0.10;0.10;;;;;;;;;;5055886;28;20301;-63
2021/09/29 02:11:52;;;;;;;0.10;0.10;;;;;;;;;;5047861;28;20213;-63
2021/09/29 02:14:20;;;;;;;0.07;0.07;;;;;;;;;;5065773;28;20418;-63
2021/09/29 02:16:47;;;;;;;0.10;0.10;;;;;;;;;;5065415;28;20209;-63
2021/09/29 02:19:14;;;;;;;0.03;0.03;;;;;;;;;;5065862;28;20205;-63
2021/09/29 02:21:41;;;;;;;0.10;0.10;;;;;;;;;;5065823;28;20209;-63
2021/09/29 02:24:08;;;;;;;0.10;0.10;;;;;;;;;;5065660;28;20530;-64
2021/09/29 02:26:34;;;;;;;0.10;0.10;;;;;;;;;;5065498;28;20371;-63
2021/09/29 02:29:00;;;;;;;0.10;0.10;;;;;;;;;;5065771;28;20389;-64
2021/09/29 02:31:27;;;;;;;0.10;0.10;;;;;;;;;;5065157;28;20227;-64
2021/09/29 02:33:53;;;;;;;0.10;0.10;;;;;;;;;;5065002;28;20226;-64
2021/09/29 02:36:21;;;;;;;0.10;0.10;;;;;;;;;;5051768;28;20220;-63
2021/09/29 02:38:49;;;;;;;0.10;0.10;;;;;;;;;;5052826;28;20216;-63
2021/09/29 02:41:15;;;;;;;0.03;0.03;;;;;;;;;;5064198;28;20204;-63
2021/09/29 02:43:42;;;;;;;0.10;0.10;;;;;;;;;;5065055;28;20453;-63
2021/09/29 02:46:08;;;;;;;0.10;0.10;;;;;;;;;;5060938;28;20222;-63
2021/09/29 02:48:34;;;;;;;0.10;0.10;;;;;;;;;;5045124;28;20248;-63
2021/09/29 02:51:00;;;;;;;0.10;0.10;;;;;;;;;;5045293;28;20260;-64
2021/09/29 02:53:29;;;;;;;0.10;0.10;;;;;;;;;;5044894;28;20213;-63
2021/09/29 02:55:55;;;;;;;0.10;0.10;;;;;;;;;;5048818;28;20207;-64
2021/09/29 02:58:22;;;;;;;0.10;0.10;;;;;;;;;;5055434;28;20220;-64
2021/09/29 03:00:48;;;;;;;0.10;0.10;;;;;;;;;;5046947;28;20217;-64
2021/09/29 03:03:15;;;;;;;0.10;0.10;;;;;;;;;;5056772;28;20224;-64
2021/09/29 03:05:41;;;;;;;0.10;0.10;;;;;;;;;;5044539;28;20277;-64
2021/09/29 03:08:07;;;;;;;0.10;0.10;;;;;;;;;;5044639;28;20209;-64
2021/09/29 03:10:37;;;;;;;0.10;0.10;;;;;;;;;;5045040;28;20465;-64
2021/09/29 03:13:04;;;;;;;0.10;0.10;;;;;;;;;;5049745;28;20215;-64
2021/09/29 03:15:30;;;;;;;0.07;0.07;;;;;;;;;;5053463;28;20206;-64
2021/09/29 03:17:56;;;;;;;0.10;0.10;;;;;;;;;;5057672;28;20201;-63
2021/09/29 03:20:24;;;;;;;0.10;0.10;;;;;;;;;;5044608;28;20264;-63
2021/09/29 03:22:50;;;;;;;0.10;0.10;;;;;;;;;;5045776;28;20206;-63
2021/09/29 03:25:17;;;;;;;0.10;0.10;;;;;;;;;;5057059;28;20498;-63
2021/09/29 03:27:45;;;;;;;0.10;0.10;;;;;;;;;;5044597;28;20274;-64
2021/09/29 03:30:12;;;;;;;0.10;0.10;;;;;;;;;;5050998;28;20262;-64
2021/09/29 03:32:38;;;;;;;0.00;0.00;;;;;;;;;;5044669;28;20209;-64
2021/09/29 03:35:05;;;;;;;0.10;0.10;;;;;;;;;;5054415;28;20197;-64
2021/09/29 03:37:31;;;;;;;0.10;0.10;;;;;;;;;;5064418;28;20228;-63
2021/09/29 03:39:57;;;;;;;0.10;0.10;;;;;;;;;;5064443;28;20470;-63
2021/09/29 03:42:24;;;;;;;0.10;0.10;;;;;;;;;;5050197;28;20205;-63
2021/09/29 03:44:52;;;;;;;0.10;0.10;;;;;;;;;;5064263;28;20250;-64
2021/09/29 03:47:19;;;;;;;0.10;0.10;;;;;;;;;;5051625;28;20213;-63
2021/09/29 03:49:45;;;;;;;0.10;0.10;;;;;;;;;;5063011;28;20246;-63
2021/09/29 03:52:12;;;;;;;0.00;0.00;;;;;;;;;;5063990;28;20246;-63
2021/09/29 03:54:38;;;;;;;0.00;0.00;;;;;;;;;;5064202;28;20264;-63
2021/09/29 03:57:04;;;;;;;0.10;0.10;;;;;;;;;;5064060;28;20202;-63
2021/09/29 03:59:31;;;;;;;0.10;0.10;;;;;;;;;;5063423;28;20213;-64
2021/09/29 04:01:59;;;;;;;0.00;0.00;;;;;;;;;;5064085;28;20517;-64
2021/09/29 04:04:26;;;;;;;0.10;0.10;;;;;;;;;;5063624;28;20240;-64
2021/09/29 04:06:52;;;;;;;0.10;0.10;;;;;;;;;;5049540;28;20293;-64
2021/09/29 04:09:19;;;;;;;0.10;0.10;;;;;;;;;;5063825;28;20370;-63
2021/09/29 04:11:45;;;;;;;0.10;0.10;;;;;;;;;;5063768;28;20259;-63
2021/09/29 04:14:11;;;;;;;0.10;0.10;;;;;;;;;;5063677;28;20197;-63
2021/09/29 04:16:38;;;;;;;0.10;0.10;;;;;;;;;;5063190;28;20236;-62
2021/09/29 04:19:05;;;;;;;0.10;0.10;;;;;;;;;;5063445;28;20272;-62
2021/09/29 04:21:31;;;;;;;0.10;0.10;;;;;;;;;;5063625;28;20221;-62
2021/09/29 04:23:58;;;;;;;0.10;0.10;;;;;;;;;;5063488;28;20223;-62
2021/09/29 04:26:24;;;;;;;0.10;0.10;;;;;;;;;;5063503;28;20259;-63
2021/09/29 04:28:50;;;;;;;0.10;0.10;;;;;;;;;;5063264;28;20248;-63
2021/09/29 04:31:16;;;;;;;0.10;0.10;;;;;;;;;;5063340;28;20206;-63
2021/09/29 04:33:43;;;;;;;0.10;0.10;;;;;;;;;;5063287;28;20206;-63
2021/09/29 04:36:10;;;;;;;0.10;0.10;;;;;;;;;;5063318;28;20385;-63
2021/09/29 04:38:36;;;;;;;0.00;0.00;;;;;;;;;;5063288;28;20254;-63
2021/09/29 04:41:03;;;;;;;0.10;0.10;;;;;;;;;;5063272;28;20206;-63
2021/09/29 04:43:29;;;;;;;0.10;0.10;;;;;;;;;;5063352;28;20525;-63
2021/09/29 04:45:55;;;;;;;0.10;0.10;;;;;;;;;;5062712;28;20206;-63
2021/09/29 04:48:22;;;;;;;0.10;0.10;;;;;;;;;;5063208;28;20205;-63
2021/09/29 04:50:48;;;;;;;0.10;0.10;;;;;;;;;;5063040;28;20208;-63
2021/09/29 04:53:16;;;;;;;0.07;0.07;;;;;;;;;;5062965;28;20503;-63
2021/09/29 04:55:42;;;;;;;0.10;0.10;;;;;;;;;;5063095;28;20282;-63
2021/09/29 04:58:10;;;;;;;0.10;0.10;;;;;;;;;;5062685;28;20247;-62
2021/09/29 05:00:36;;;;;;;0.10;0.10;;;;;;;;;;5062968;28;20205;-62
2021/09/29 05:03:03;;;;;;;0.03;0.03;;;;;;;;;;5062884;28;20243;-63
2021/09/29 05:05:33;;;;;;;0.10;0.10;;;;;;;;;;5062864;28;20232;-63
2021/09/29 05:08:00;;;;;;;0.10;0.10;;;;;;;;;;5062686;28;20207;-64
2021/09/29 05:10:30;;;;;;;0.10;0.10;;;;;;;;;;5062784;28;20504;-63
2021/09/29 05:13:01;;;;;;;0.30;0.30;;;;;;;;;;5062923;28;20237;-63
2021/09/29 05:15:27;;;;;;;0.00;0.00;;;;;;;;;;5062634;28;20290;-63
2021/09/29 05:17:53;;;;;;;0.10;0.10;;;;;;;;;;5050497;28;20209;-64
2021/09/29 05:20:19;;;;;;;0.00;0.00;;;;;;;;;;5060959;28;20216;-63
2021/09/29 05:22:46;;;;;;;0.10;0.10;;;;;;;;;;5062154;28;20213;-63
2021/09/29 05:25:12;;;;;;;0.07;0.07;;;;;;;;;;5042733;28;20287;-63
2021/09/29 05:27:39;;;;;;;0.00;0.00;;;;;;;;;;5042824;28;20425;-63
2021/09/29 05:30:06;;;;;;;0.10;0.10;;;;;;;;;;5042729;28;20209;-64
2021/09/29 05:32:33;;;;;;;0.10;0.10;;;;;;;;;;5045790;28;20210;-63
2021/09/29 05:34:59;;;;;;;0.10;0.10;;;;;;;;;;5054394;28;20200;-63
2021/09/29 05:37:25;;;;;;;0.10;0.10;;;;;;;;;;5048179;28;20207;-63
2021/09/29 05:39:51;;;;;;;0.10;0.10;;;;;;;;;;5043082;28;20259;-63
2021/09/29 05:42:17;;;;;;;0.10;0.10;;;;;;;;;;5059952;28;20433;-62
2021/09/29 05:44:45;;;;;;;0.10;0.10;;;;;;;;;;5047594;28;20245;-63
2021/09/29 05:47:11;;;;;;;0.10;0.10;;;;;;;;;;5061897;28;20570;-74
2021/09/29 05:49:38;;;;;;;0.10;0.10;;;;;;;;;;5052267;28;20268;-74
2021/09/29 05:52:04;;;;;;;0.10;0.10;;;;;;;;;;5051662;28;20323;-75
2021/09/29 05:54:31;;;;;;;0.10;0.10;;;;;;;;;;5058458;28;20209;-73
2021/09/29 05:56:58;;;;;;;0.10;0.10;;;;;;;;;;5060847;28;20206;-75
2021/09/29 05:59:24;;;;;;;0.10;0.10;;;;;;;;;;5057258;28;20205;-72
2021/09/29 06:01:52;;;;;;;0.10;0.10;;;;;;;;;;5058197;28;20208;-73
2021/09/29 06:04:18;;;;;;;0.10;0.10;;;;;;;;;;5054201;28;20267;-74
2021/09/29 06:06:44;;;;;;;0.03;0.03;;;;;;;;;;5051286;28;20286;-73
2021/09/29 06:09:11;;;;;;;0.10;0.10;;;;;;;;;;5062406;28;20200;-73
2021/09/29 06:11:37;;;;;;;0.10;0.10;;;;;;;;;;5065634;28;20208;-74
2021/09/29 06:14:04;;;;;;;0.10;0.10;;;;;;;;;;5065719;28;20256;-73
2021/09/29 06:16:31;;;;;;;0.00;0.00;;;;;;;;;;5064734;28;20211;-73
2021/09/29 06:18:59;;;;;;;0.10;0.10;;;;;;;;;;5053471;28;20465;-73
2021/09/29 06:21:25;;;;;;;0.10;0.10;;;;;;;;;;5065632;28;20209;-73
2021/09/29 06:23:52;;;;;;;0.10;0.10;;;;;;;;;;5065395;28;20513;-73
2021/09/29 06:26:18;;;;;;;0.10;0.10;;;;;;;;;;5065870;28;20247;-73
2021/09/29 06:28:44;;;;;;;0.10;0.10;;;;;;;;;;5065215;28;20260;-73
2021/09/29 06:31:10;;;;;;;0.00;0.00;;;;;;;;;;5058757;28;20521;-74
2021/09/29 06:33:37;;;;;;;0.00;0.00;;;;;;;;;;5052917;28;20229;-73
2021/09/29 06:36:05;;;;;;;0.10;0.10;;;;;;;;;;5063836;28;20197;-73
2021/09/29 06:38:31;;;;;;;0.10;0.10;;;;;;;;;;5057113;28;20242;-72
2021/09/29 06:40:57;;;;;;;0.00;0.00;;;;;;;;;;5059315;28;20505;-73
2021/09/29 06:43:24;;;;;;;0.10;0.10;;;;;;;;;;5061216;28;20493;-74
2021/09/29 06:45:50;;;;;;;0.00;0.00;;;;;;;;;;5055195;28;20230;-73
2021/09/29 06:48:16;;;;;;;0.03;0.03;;;;;;;;;;5046461;28;20301;-73
2021/09/29 06:50:43;;;;;;;0.10;0.10;;;;;;;;;;5050977;28;20550;-73
2021/09/29 06:53:16;;;;;;;0.10;0.10;;;;;;;;;;5056075;28;20470;-73
2021/09/29 06:55:43;;;;;;;0.10;0.10;;;;;;;;;;5058884;28;20199;-73
2021/09/29 06:58:09;;;;;;;0.10;0.10;;;;;;;;;;5059904;28;20248;-73
2021/09/29 07:00:35;;;;;;;0.10;0.10;;;;;;;;;;5064931;28;20205;-73
2021/09/29 07:03:01;;;;;;;0.10;0.10;;;;;;;;;;5061774;28;20268;-73
2021/09/29 07:05:28;;;;;;;0.10;0.10;;;;;;;;;;5063076;28;20644;-74
2021/09/29 07:07:54;;;;;;;0.03;0.03;;;;;;;;;;5053304;28;20329;-73
2021/09/29 07:10:23;;;;;;;0.00;0.00;;;;;;;;;;5053626;28;20208;-73
2021/09/29 07:12:49;;;;;;;0.10;0.10;;;;;;;;;;5056093;28;20253;-75
2021/09/29 07:15:15;;;;;;;0.10;0.10;;;;;;;;;;5060089;28;20404;-73
2021/09/29 07:17:43;;;;;;;0.77;0.77;;;;;;;;;;5064006;28;20238;-73
2021/09/29 07:20:11;;;;;;;0.10;0.10;;;;;;;;;;5055100;28;20252;-74
2021/09/29 07:22:37;;;;;;;0.00;0.00;;;;;;;;;;5061508;28;20209;-73
2021/09/29 07:25:04;;;;;;;0.10;0.10;;;;;;;;;;5057268;28;20282;-74
2021/09/29 07:27:32;;;;;;;0.00;0.00;;;;;;;;;;5064468;28;20251;-73
2021/09/29 07:29:58;;;;;;;0.00;0.00;;;;;;;;;;5064300;28;20256;-73
2021/09/29 07:32:25;;;;;;;0.00;0.00;;;;;;;;;;5055851;28;20206;-72
2021/09/29 07:34:51;;;;;;;0.10;0.10;;;;;;;;;;5060785;28;20233;-72
2021/09/29 07:37:18;;;;;;;0.10;0.10;;;;;;;;;;5052647;28;20206;-72
2021/09/29 07:39:46;;;;;;;0.07;0.07;;;;;;;;;;5064058;28;20208;-71
2021/09/29 07:42:12;;;;;;;0.10;0.10;;;;;;;;;;5064163;28;20524;-70
2021/09/29 07:44:40;;;;;;;0.10;0.10;;;;;;;;;;5061670;28;20273;-72
2021/09/29 07:47:06;;;;;;;0.00;0.00;;;;;;;;;;5064014;28;20289;-73
2021/09/29 07:49:33;;;;;;;0.00;0.00;;;;;;;;;;5052415;28;20491;-71
2021/09/29 07:51:59;;;;;;;0.10;0.10;;;;;;;;;;5064086;28;20264;-72
2021/09/29 07:54:27;;;;;;;0.10;0.10;;;;;;;;;;5058670;28;20201;-71
2021/09/29 07:56:53;;;;;;;0.40;0.40;;;;;;;;;;5061402;28;20203;-72
2021/09/29 07:59:19;;;;;;;0.10;0.10;;;;;;;;;;5063965;28;20204;-72
2021/09/29 08:01:47;;;;;;;0.10;0.10;;;;;;;;;;5063369;28;20206;-73
2021/09/29 08:04:16;;;;;;;0.10;0.10;;;;;;;;;;5062929;28;20211;-71
2021/09/29 08:06:43;;;;;;;0.10;0.10;;;;;;;;;;5062149;28;20248;-71
2021/09/29 08:09:09;;;;;;;0.10;0.10;;;;;;;;;;5063785;28;20266;-72
2021/09/29 08:11:35;;;;;;;0.10;0.10;;;;;;;;;;5061216;28;20205;-72
2021/09/29 08:14:02;;;;;;;0.10;0.10;;;;;;;;;;5063747;28;20206;-71
2021/09/29 08:16:28;;;;;;;1.07;1.07;;;;;;;;;;5060342;28;20235;-72
2021/09/29 08:18:56;;;;;;;0.10;0.10;;;;;;;;;;5052992;28;20421;-72
2021/09/29 08:21:27;;;;;;;0.50;0.50;;;;;;;;;;5062196;28;20204;-72
2021/09/29 08:23:56;;;;;;;0.10;0.10;;;;;;;;;;5063426;28;20199;-73
2021/09/29 08:26:46;;;;;;;0.10;0.10;;;;;;;;;;5062787;28;20254;-72
2021/09/29 08:29:29;;;;;;;0.10;0.10;;;;;;;;;;5056259;28;20532;-73
2021/09/29 08:32:05;;;;;;;0.10;0.10;;;;;;;;;;5058343;28;20269;-71
2021/09/29 08:34:42;;;;;;;0.10;0.10;;;;;;;;;;5063269;28;20205;-71
2021/09/29 08:37:19;;;;;;;0.10;0.10;;;;;;;;;;5063428;28;20229;-71
2021/09/29 08:39:51;;;;;;;0.10;0.10;;;;;;;;;;5043505;28;20209;-72
2021/09/29 08:42:25;;;;;;;0.10;0.10;;;;;;;;;;5051213;28;20245;-71
2021/09/29 08:44:53;;;;;;;0.10;0.10;;;;;;;;;;5054051;28;20561;-72
2021/09/29 08:47:25;;;;;;;0.10;0.10;;;;;;;;;;5055859;28;20230;-72
2021/09/29 08:50:05;;;;;;;0.07;0.07;;;;;;;;;;5056615;28;20197;-72
2021/09/29 08:55:39;;;;;;;0.03;0.03;;;;;;;;;;5050967;28;20229;-71
2021/09/29 08:58:22;;;;;;;0.10;0.10;;;;;;;;;;5060580;28;20205;-71
2021/09/29 09:15:08;;;;;;;0.10;0.10;;;;;;;;;;5047967;28;20206;-73
2021/09/29 09:17:36;;;;;;;0.10;0.10;;;;;;;;;;5051707;28;20212;-73
2021/09/29 09:20:13;;;;;;;0.10;0.10;;;;;;;;;;5051650;28;20213;-72
2021/09/29 09:22:41;;;;;;;0.10;0.10;;;;;;;;;;5060360;28;20205;-73
2021/09/29 09:25:08;;;;;;;0.10;0.10;;;;;;;;;;5054945;28;20537;-71
2021/09/29 09:27:39;;;;;;;0.10;0.10;;;;;;;;;;5057403;28;20247;-71
2021/09/29 09:30:06;;;;;;;0.10;0.10;;;;;;;;;;5056705;28;20210;-71
2021/09/29 09:32:41;;;;;;;0.10;0.10;;;;;;;;;;5058702;28;20557;-71
2021/09/29 09:35:08;;;;;;;0.10;0.10;;;;;;;;;;5059392;28;20194;-72
2021/09/29 09:37:37;;;;;;;0.10;0.10;;;;;;;;;;5062393;28;20282;-72
2021/09/29 09:40:06;;;;;;;1.23;1.23;;;;;;;;;;5059072;28;20305;-71
2021/09/29 09:42:38;;;;;;;0.10;0.10;;;;;;;;;;5051018;28;20205;-69
2021/09/29 09:45:05;;;;;;;0.10;0.10;;;;;;;;;;5048114;28;20258;-71
2021/09/29 09:47:37;;;;;;;0.30;0.30;;;;;;;;;;5063390;28;20210;-70
2021/09/29 09:50:04;;;;;;;0.10;0.10;;;;;;;;;;5066402;28;20199;-71
2021/09/29 09:52:31;;;;;;;0.10;0.10;;;;;;;;;;5066183;28;20206;-72
2021/09/29 09:55:01;;;;;;;0.10;0.10;;;;;;;;;;5057798;28;20211;-71
2021/09/29 09:57:28;;;;;;;3.40;3.10;;;;;;;;;;5066274;28;20485;-71
2021/09/29 09:59:55;;;;;;;0.10;0.10;;;;;;;;;;5057081;28;20556;-71
2021/09/29 10:02:21;;;;;;;0.10;0.10;;;;;;;;;;5060741;28;20210;-71
2021/09/29 10:04:48;;;;;;;0.10;0.10;;;;;;;;;;5060443;28;20208;-72
2021/09/29 10:07:15;;;;;;;0.10;0.10;;;;;;;;;;5060457;28;20203;-70
2021/09/29 10:09:45;;;;;;;0.07;0.07;;;;;;;;;;5065702;28;20213;-72
2021/09/29 10:12:25;;;;;;;0.10;0.10;;;;;;;;;;5060435;28;20203;-72
2021/09/29 10:23:18;;;;;;;0.00;0.00;;;;;;;;;;5053882;28;20237;-77
2021/09/29 10:26:08;;;;;;;0.30;0.30;;;;;;;;;;5059270;28;20338;-77
2021/09/29 10:28:38;;;;;;;0.07;0.07;;;;;;;;;;5052731;28;20216;-78
2021/09/29 10:31:15;;;;;;;0.10;0.10;;;;;;;;;;5057937;28;20227;-77
2021/09/29 10:33:44;;;;;;;0.10;0.10;;;;;;;;;;5056143;28;20513;-76
2021/09/29 10:36:22;;;;;;;0.10;0.10;;;;;;;;;;5052086;28;20203;-77
2021/09/29 10:41:49;;;;;;;0.10;0.10;;;;;;;;;;5063847;28;20311;-75
2021/09/29 10:44:22;;;;;;;0.10;0.10;;;;;;;;;;5061142;28;20198;-76
2021/09/29 10:47:09;;;;;;;0.73;0.73;;;;;;;;;;5062888;28;20238;-76
2021/09/29 11:06:57;;;;;;;0.10;0.10;;;;;;;;;;5036239;28;20237;-73
2021/09/29 11:09:43;;;;;;;0.10;0.10;;;;;;;;;;5058633;28;20564;-73
2021/09/29 11:28:58;;;;;;;0.10;0.10;;;;;;;;;;5053233;28;20434;-73
2021/09/29 11:31:26;;;;;;;0.10;0.10;;;;;;;;;;5063670;28;20274;-73
2021/09/29 11:33:58;;;;;;;0.10;0.10;;;;;;;;;;5063636;28;20240;-73
2021/09/29 11:36:51;;;;;;;0.10;0.10;;;;;;;;;;5057140;28;20198;-74
2021/09/29 11:39:35;;;;;;;1.13;1.13;;;;;;;;;;5059944;28;20223;-74
2021/09/29 12:09:54;;;;;;;0.20;0.20;;;;;;;;;;5063598;28;20208;-74
2021/09/29 12:12:23;;;;;;;0.10;0.10;;;;;;;;;;5061711;28;20202;-74
2021/09/29 12:14:50;;;;;;;0.10;0.10;;;;;;;;;;5058713;28;20232;-73
2021/09/29 12:17:20;;;;;;;0.33;0.33;;;;;;;;;;5052649;28;20419;-74
2021/09/29 12:19:51;;;;;;;0.10;0.10;;;;;;;;;;5063279;28;20411;-74
2021/09/29 12:22:18;;;;;;;0.00;0.00;;;;;;;;;;5060210;28;20206;-73
2021/09/29 12:24:46;;;;;;;0.10;0.10;;;;;;;;;;5056346;28;20206;-72
2021/09/29 12:27:23;;;;;;;0.10;0.10;;;;;;;;;;5053447;28;20583;-73
2021/09/29 12:29:53;;;;;;;0.10;0.10;;;;;;;;;;5048871;28;20206;-73
2021/09/29 12:35:16;;;;;;;0.10;0.10;;;;;;;;;;5050409;28;20197;-73
2021/09/29 12:37:53;;;;;;;0.10;0.10;;;;;;;;;;5062783;28;20231;-74
2021/09/29 12:40:19;;;;;;;0.00;0.00;;;;;;;;;;5054311;28;20247;-73
2021/09/29 12:42:56;;;;;;;0.10;0.10;;;;;;;;;;5062289;28;20225;-73
2021/09/29 12:45:24;;;;;;;0.10;0.10;;;;;;;;;;5063071;28;20494;-73
2021/09/29 12:47:51;;;;;;;0.10;0.10;;;;;;;;;;5053746;28;20502;-72
2021/09/29 12:50:21;;;;;;;0.10;0.10;;;;;;;;;;5062728;28;20305;-73
2021/09/29 12:52:51;;;;;;;0.03;0.03;;;;;;;;;;5062956;28;20417;-73
2021/09/29 12:55:22;;;;;;;0.83;0.67;;;;;;;;;;5059300;28;20405;-73
2021/09/29 12:57:50;;;;;;;0.10;0.10;;;;;;;;;;5058025;28;20401;-72
2021/09/29 13:00:17;;;;;;;0.10;0.10;;;;;;;;;;5062372;28;20212;-73
2021/09/29 13:02:43;;;;;;;0.00;0.00;;;;;;;;;;5061953;28;20455;-73
2021/09/29 13:05:10;;;;;;;0.10;0.10;;;;;;;;;;5058871;28;20279;-72
2021/09/29 13:07:36;;;;;;;0.00;0.00;;;;;;;;;;5062776;28;20414;-72
2021/09/29 13:10:03;;;;;;;0.07;0.07;;;;;;;;;;5062781;28;20258;-72
2021/09/29 13:12:30;;;;;;;0.10;0.10;;;;;;;;;;5052759;28;20217;-72
2021/09/29 13:14:58;;;;;;;0.10;0.10;;;;;;;;;;5062676;28;20204;-73
2021/09/29 13:17:25;;;;;;;0.03;0.03;;;;;;;;;;5062352;28;20269;-73
2021/09/29 13:19:56;;;;;;;0.10;0.10;;;;;;;;;;5062260;28;20212;-71
2021/09/29 13:22:24;;;;;;;0.60;0.60;;;;;;;;;;5052970;28;20406;-71
2021/09/29 13:35:05;;;;;;;0.77;0.77;;;;;;;;;;5059386;28;20247;-71
2021/09/29 13:38:41;;;;;;;0.10;0.10;;;;;;;;;;5062620;28;20199;-70
2021/09/29 13:41:08;;;;;;;2.17;2.03;;;;;;;;;;5062473;28;20431;-71
2021/09/29 13:43:34;;;;;;;0.00;0.00;;;;;;;;;;5062539;28;20200;-71
2021/09/29 13:46:01;;;;;;;0.10;0.10;;;;;;;;;;5062104;28;20227;-72
2021/09/29 13:48:28;;;;;;;0.10;0.10;;;;;;;;;;5062101;28;20209;-71
2021/09/29 13:50:54;;;;;;;0.50;0.50;;;;;;;;;;5062055;28;20201;-68
2021/09/29 13:53:21;;;;;;;0.10;0.10;;;;;;;;;;5062190;28;20207;-71
2021/09/29 13:55:49;;;;;;;0.10;0.10;;;;;;;;;;5062427;28;20225;-71
2021/09/29 13:58:23;;;;;;;0.10;0.10;;;;;;;;;;5062361;28;20395;-70
2021/09/29 14:01:07;;;;;;;0.10;0.10;;;;;;;;;;5050410;28;20207;-70
2021/09/29 14:03:48;;;;;;;0.10;0.10;;;;;;;;;;5052502;28;20202;-71
2021/09/29 14:14:51;;;;;;;0.07;0.07;;;;;;;;;;5057717;28;20239;-71
2021/09/29 14:28:41;;;;;;;0.10;0.10;;;;;;;;;;5062004;28;20448;-77
2021/09/29 14:31:13;;;;;;;0.07;0.07;;;;;;;;;;5061379;28;20208;-76
2021/09/29 14:33:44;;;;;;;0.00;0.00;;;;;;;;;;5056457;28;20236;-76
2021/09/29 14:36:11;;;;;;;0.10;0.10;;;;;;;;;;5051807;28;20241;-75
2021/09/29 14:38:38;;;;;;;0.00;0.00;;;;;;;;;;5065270;28;20255;-75
2021/09/29 14:41:04;;;;;;;0.10;0.10;;;;;;;;;;5051536;28;20200;-77
2021/09/29 14:43:30;;;;;;;0.10;0.10;;;;;;;;;;5065656;28;20228;-75
2021/09/29 14:45:56;;;;;;;0.03;0.03;;;;;;;;;;5051068;28;20276;-76
2021/09/29 14:48:23;;;;;;;0.03;0.03;;;;;;;;;;5065090;28;20204;-76
2021/09/29 14:50:50;;;;;;;0.10;0.10;;;;;;;;;;5057767;28;20366;-72
2021/09/29 14:53:18;;;;;;;0.10;0.10;;;;;;;;;;5058902;28;20204;-72
2021/09/29 14:55:44;;;;;;;0.00;0.00;;;;;;;;;;5064758;28;20205;-72
2021/09/29 14:58:10;;;;;;;0.00;0.00;;;;;;;;;;5065247;28;20482;-72
2021/09/29 15:00:37;;;;;;;0.10;0.10;;;;;;;;;;5061154;28;20528;-71
2021/09/29 15:03:03;;;;;;;0.00;0.00;;;;;;;;;;5045085;28;20259;-72
2021/09/29 15:05:30;;;;;;;0.00;0.00;;;;;;;;;;5060876;28;20256;-73
2021/09/29 15:07:57;;;;;;;0.10;0.10;;;;;;;;;;5056657;28;20413;-73
2021/09/29 15:10:24;;;;;;;0.10;0.10;;;;;;;;;;5059834;28;20245;-72
2021/09/29 15:12:51;;;;;;;0.00;0.00;;;;;;;;;;5054430;28;20235;-71
2021/09/29 15:15:23;;;;;;;0.03;0.03;;;;;;;;;;5057677;28;20204;-73
2021/09/29 15:17:53;;;;;;;0.10;0.10;;;;;;;;;;5056683;28;20234;-72
2021/09/29 15:20:23;;;;;;;0.10;0.10;;;;;;;;;;5064389;28;20234;-72
2021/09/29 15:23:00;;;;;;;0.10;0.10;;;;;;;;;;5051858;28;20203;-71
2021/09/29 15:29:02;;;;;;;0.10;0.10;;;;;;;;;;5031078;28;20251;-72
2021/09/29 15:31:50;;;;;;;0.10;0.10;;;;;;;;;;5059507;28;20247;-72
2021/09/29 15:48:00;;;;;;;0.53;0.53;;;;;;;;;;5049177;28;20413;-72
2021/09/29 15:50:32;;;;;;;0.10;0.10;;;;;;;;;;5044380;28;20206;-72
2021/09/29 15:53:20;;;;;;;0.00;0.00;;;;;;;;;;5044442;28;20204;-72
2021/09/29 15:55:51;;;;;;;0.10;0.10;;;;;;;;;;5063874;28;20207;-74
2021/09/29 16:00:59;;;;;;;0.07;0.07;;;;;;;;;;5054339;28;20556;-74
2021/09/29 16:03:38;;;;;;;0.10;0.10;;;;;;;;;;5061353;28;20275;-73
2021/09/29 16:06:15;;;;;;;0.10;0.10;;;;;;;;;;5055244;28;20394;-74
2021/09/29 16:08:55;;;;;;;0.00;0.00;;;;;;;;;;5062373;28;20192;-73
2021/09/29 16:14:23;;;;;;;0.10;0.10;;;;;;;;;;5051229;28;20284;-73
2021/09/29 16:16:56;;;;;;;3.10;1.43;;;;;;;;;;5061507;28;20202;-73
2021/09/29 16:19:37;;;;;;;0.00;0.00;;;;;;;;;;5063354;28;20239;-72
2021/09/29 16:22:28;;;;;;;0.10;0.10;;;;;;;;;;5043788;28;20263;-73
2021/09/29 16:30:28;;;;;;;0.03;0.03;;;;;;;;;;5061176;28;20210;-73
2021/09/29 16:33:12;;;;;;;0.10;0.10;;;;;;;;;;5062768;28;20226;-74
2021/09/29 16:35:48;;;;;;;0.10;0.10;;;;;;;;;;5055626;28;20215;-72
2021/09/29 16:38:14;;;;;;;0.10;0.10;;;;;;;;;;5043721;28;20266;-74
2021/09/29 16:40:40;;;;;;;0.10;0.10;;;;;;;;;;5043893;28;20253;-74
2021/09/29 16:43:07;;;;;;;0.10;0.10;;;;;;;;;;5050007;28;20209;-73
2021/09/29 16:45:36;;;;;;;0.10;0.10;;;;;;;;;;5063191;28;20205;-71
2021/09/29 16:48:02;;;;;;;0.10;0.10;;;;;;;;;;5062651;28;20234;-73
2021/09/29 16:50:36;;;;;;;0.10;0.10;;;;;;;;;;5059988;28;20207;-71
2021/09/29 16:53:08;;;;;;;0.10;0.10;;;;;;;;;;5062873;28;20520;-73
2021/09/29 16:55:37;;;;;;;0.10;0.10;;;;;;;;;;5061934;28;20204;-72
2021/09/29 16:58:11;;;;;;;0.00;0.00;;;;;;;;;;5060666;28;20415;-71
2021/09/29 17:00:53;;;;;;;0.10;0.10;;;;;;;;;;5060448;28;20393;-72
2021/09/29 17:03:19;;;;;;;0.07;0.07;;;;;;;;;;5061869;28;20226;-72
2021/09/29 17:05:45;;;;;;;0.10;0.10;;;;;;;;;;5061634;28;20260;-72
2021/09/29 17:08:11;;;;;;;0.10;0.10;;;;;;;;;;5059574;28;20217;-72
2021/09/29 17:10:38;;;;;;;0.00;0.00;;;;;;;;;;5048735;28;20224;-70
2021/09/29 17:13:06;;;;;;;0.10;0.10;;;;;;;;;;5055352;28;20368;-71
2021/09/29 17:15:32;;;;;;;1.43;1.13;;;;;;;;;;5049993;28;20207;-70
2021/09/29 17:18:00;;;;;;;0.10;0.10;;;;;;;;;;5049418;28;20456;-71
2021/09/29 17:20:26;;;;;;;0.10;0.10;;;;;;;;;;5054555;28;20272;-73
2021/09/29 17:22:57;;;;;;;0.10;0.10;;;;;;;;;;5054227;28;20483;-73
2021/09/29 17:25:24;;;;;;;0.10;0.10;;;;;;;;;;5058064;28;20203;-73